createdAt,value
2023-05-20T00:01:33.922Z,11.90
2023-05-20T00:04:01.042Z,11.90
2023-05-20T00:06:29.232Z,11.90
2023-05-20T00:09:01.315Z,11.90
2023-05-20T00:11:28.292Z,11.90
2023-05-20T00:13:57.641Z,11.90
2023-05-20T00:16:26.699Z,12.00
2023-05-20T00:18:53.806Z,12.00
2023-05-20T00:21:25.739Z,12.00
2023-05-20T00:23:56.353Z,11.90
2023-05-20T00:26:32.431Z,12.00
2023-05-20T00:28:59.219Z,12.00
2023-05-20T00:31:29.186Z,12.00
2023-05-20T00:33:58.496Z,12.00
2023-05-20T00:36:29.967Z,12.00
2023-05-20T00:38:56.976Z,12.00
2023-05-20T00:41:26.927Z,12.00
2023-05-20T00:43:55.115Z,12.00
2023-05-20T00:46:35.633Z,12.00
2023-05-20T00:49:02.944Z,12.00
2023-05-20T00:51:33.677Z,12.00
2023-05-20T00:54:01.568Z,12.00
2023-05-20T00:56:30.824Z,12.00
2023-05-20T00:59:07.689Z,12.00
2023-05-20T01:01:41.031Z,12.00
2023-05-20T01:04:07.941Z,12.00
2023-05-20T01:06:35.023Z,12.00
2023-05-20T01:09:01.899Z,12.00
2023-05-20T01:11:37.131Z,12.00
2023-05-20T01:14:07.889Z,12.00
2023-05-20T01:16:36.248Z,12.00
2023-05-20T01:19:06.896Z,12.10
2023-05-20T01:21:35.897Z,12.00
2023-05-20T01:24:05.867Z,12.00
2023-05-20T01:26:38.423Z,12.00
2023-05-20T01:29:05.544Z,12.10
2023-05-20T01:31:37.510Z,12.10
2023-05-20T01:34:05.751Z,12.00
2023-05-20T01:36:33.882Z,12.00
2023-05-20T01:39:03.066Z,12.10
2023-05-20T01:41:31.188Z,12.10
2023-05-20T01:43:58.112Z,12.10
2023-05-20T01:46:26.803Z,12.10
2023-05-20T01:48:56.442Z,12.00
2023-05-20T01:51:23.454Z,12.00
2023-05-20T01:53:50.609Z,12.00
2023-05-20T01:56:17.485Z,12.10
2023-05-20T01:58:44.592Z,12.00
2023-05-20T02:01:11.422Z,12.10
2023-05-20T02:03:38.330Z,12.00
2023-05-20T02:06:05.253Z,12.10
2023-05-20T02:08:32.262Z,12.10
2023-05-20T02:11:01.445Z,12.00
2023-05-20T02:13:28.350Z,12.00
2023-05-20T02:15:58.097Z,12.00
2023-05-20T02:18:26.562Z,12.00
2023-05-20T02:21:04.716Z,12.00
2023-05-20T02:23:32.020Z,12.00
2023-05-20T02:26:06.235Z,12.00
2023-05-20T02:28:33.609Z,11.90
2023-05-20T02:31:00.544Z,12.00
2023-05-20T02:33:29.169Z,12.00
2023-05-20T02:35:56.290Z,12.00
2023-05-20T02:38:23.236Z,12.00
2023-05-20T02:40:55.978Z,12.00
2023-05-20T02:43:22.937Z,12.00
2023-05-20T02:45:49.844Z,12.00
2023-05-20T02:48:16.864Z,12.00
2023-05-20T02:50:44.703Z,12.00
2023-05-20T02:53:15.765Z,12.00
2023-05-20T02:55:42.588Z,12.00
2023-05-20T02:58:09.473Z,12.00
2023-05-20T03:00:40.915Z,12.00
2023-05-20T03:03:08.732Z,12.00
2023-05-20T03:05:38.017Z,12.00
2023-05-20T03:08:11.152Z,12.00
2023-05-20T03:10:39.138Z,12.00
2023-05-20T03:13:09.119Z,12.00
2023-05-20T03:15:36.894Z,12.00
2023-05-20T03:18:04.623Z,12.10
2023-05-20T03:20:32.835Z,12.10
2023-05-20T03:22:59.751Z,12.10
2023-05-20T03:25:27.895Z,12.10
2023-05-20T03:27:55.077Z,12.10
2023-05-20T03:30:22.412Z,12.10
2023-05-20T03:32:51.881Z,12.10
2023-05-20T03:35:18.990Z,12.10
2023-05-20T03:37:46.106Z,12.10
2023-05-20T03:40:15.953Z,12.20
2023-05-20T03:42:45.124Z,12.20
2023-05-20T03:45:14.408Z,12.10
2023-05-20T03:47:42.218Z,12.10
2023-05-20T03:50:16.695Z,12.20
2023-05-20T03:52:45.255Z,12.20
2023-05-20T03:55:21.455Z,12.20
2023-05-20T03:57:48.516Z,12.20
2023-05-20T04:00:16.899Z,12.20
2023-05-20T04:02:43.961Z,12.20
2023-05-20T04:05:17.158Z,12.20
2023-05-20T04:07:44.113Z,12.20
2023-05-20T04:10:15.941Z,12.30
2023-05-20T04:12:45.004Z,12.30
2023-05-20T04:15:12.915Z,12.30
2023-05-20T04:17:40.608Z,12.30
2023-05-20T04:20:08.382Z,12.30
2023-05-20T04:22:35.366Z,12.40
2023-05-20T04:25:08.108Z,12.40
2023-05-20T04:27:35.085Z,12.40
2023-05-20T04:30:02.693Z,12.50
2023-05-20T04:32:34.488Z,12.50
2023-05-20T04:35:07.760Z,12.50
2023-05-20T04:37:37.532Z,12.50
2023-05-20T04:40:10.373Z,12.60
2023-05-20T04:42:37.946Z,12.60
2023-05-20T04:45:05.954Z,12.60
2023-05-20T04:47:39.240Z,12.70
2023-05-20T04:50:10.766Z,12.80
2023-05-20T04:52:46.217Z,12.80
2023-05-20T04:55:15.884Z,12.80
2023-05-20T04:57:43.609Z,12.90
2023-05-20T05:00:12.701Z,12.90
2023-05-20T05:02:40.335Z,13.00
2023-05-20T05:05:10.224Z,13.10
2023-05-20T05:07:39.452Z,13.00
2023-05-20T05:10:09.315Z,13.10
2023-05-20T05:12:36.186Z,13.20
2023-05-20T05:15:03.285Z,13.30
2023-05-20T05:17:30.363Z,13.30
2023-05-20T05:19:57.370Z,13.40
2023-05-20T05:22:34.511Z,13.40
2023-05-20T05:25:03.580Z,13.40
2023-05-20T05:27:32.810Z,13.40
2023-05-20T05:29:59.774Z,13.50
2023-05-20T05:32:28.177Z,13.50
2023-05-20T05:34:55.198Z,13.50
2023-05-20T05:37:22.437Z,13.60
2023-05-20T05:39:49.582Z,13.70
2023-05-20T05:42:17.305Z,13.60
2023-05-20T05:44:44.698Z,13.70
2023-05-20T05:47:11.717Z,13.70
2023-05-20T05:49:38.587Z,13.70
2023-05-20T05:52:05.772Z,13.70
2023-05-20T05:54:32.696Z,13.80
2023-05-20T05:57:00.813Z,13.70
2023-05-20T05:59:27.607Z,13.80
2023-05-20T06:01:54.510Z,13.80
2023-05-20T06:04:23.510Z,13.90
2023-05-20T06:06:50.434Z,13.90
2023-05-20T06:09:17.762Z,14.00
2023-05-20T06:11:44.729Z,14.00
2023-05-20T06:14:11.592Z,14.10
2023-05-20T06:16:39.612Z,14.10
2023-05-20T06:19:07.581Z,14.10
2023-05-20T06:21:37.553Z,14.20
2023-05-20T06:24:08.269Z,14.20
2023-05-20T06:26:40.729Z,14.20
2023-05-20T06:29:07.721Z,14.30
2023-05-20T06:31:34.713Z,14.40
2023-05-20T06:34:04.158Z,14.40
2023-05-20T06:36:33.049Z,14.50
2023-05-20T06:39:01.759Z,14.50
2023-05-20T06:41:28.678Z,14.50
2023-05-20T06:43:55.586Z,14.50
2023-05-20T06:46:22.409Z,14.60
2023-05-20T06:48:49.294Z,14.70
2023-05-20T06:51:16.391Z,14.80
2023-05-20T06:53:44.535Z,14.70
2023-05-20T06:56:11.298Z,14.70
2023-05-20T06:58:38.013Z,14.70
2023-05-20T07:01:04.879Z,14.70
2023-05-20T07:03:31.880Z,14.70
2023-05-20T07:05:58.978Z,14.70
2023-05-20T07:08:26.054Z,14.70
2023-05-20T07:10:55.282Z,14.70
2023-05-20T07:13:24.214Z,14.80
2023-05-20T07:15:51.013Z,14.80
2023-05-20T07:18:17.825Z,14.80
2023-05-20T07:20:45.451Z,14.90
2023-05-20T07:23:13.325Z,14.80
2023-05-20T07:25:44.576Z,14.90
2023-05-20T07:28:11.424Z,14.90
2023-05-20T07:30:38.313Z,15.00
2023-05-20T07:33:05.166Z,14.90
2023-05-20T07:35:33.043Z,14.90
2023-05-20T07:38:02.619Z,14.90
2023-05-20T07:40:40.553Z,15.00
2023-05-20T07:43:08.794Z,15.00
2023-05-20T07:45:37.151Z,15.00
2023-05-20T07:48:05.598Z,15.00
2023-05-20T07:50:34.679Z,15.10
2023-05-20T07:53:01.785Z,15.10
2023-05-20T07:55:28.659Z,15.10
2023-05-20T07:57:58.706Z,15.20
2023-05-20T08:00:29.907Z,15.10
2023-05-20T08:02:56.853Z,15.20
2023-05-20T08:05:24.126Z,15.30
2023-05-20T08:07:51.341Z,15.30
2023-05-20T08:10:18.723Z,15.30
2023-05-20T08:12:47.284Z,15.40
2023-05-20T08:15:14.480Z,15.40
2023-05-20T08:17:44.456Z,15.60
2023-05-20T08:20:12.848Z,15.70
2023-05-20T08:22:39.817Z,15.90
2023-05-20T08:25:16.144Z,16.00
2023-05-20T08:27:43.038Z,16.00
2023-05-20T08:30:12.879Z,16.10
2023-05-20T08:32:39.715Z,16.10
2023-05-20T08:35:09.347Z,16.00
2023-05-20T08:37:36.344Z,16.00
2023-05-20T08:40:05.380Z,16.20
2023-05-20T08:42:35.669Z,16.40
2023-05-20T08:45:02.997Z,16.50
2023-05-20T08:47:29.835Z,16.70
2023-05-20T08:49:56.626Z,16.80
2023-05-20T08:52:24.497Z,16.80
2023-05-20T08:54:52.298Z,17.00
2023-05-20T08:57:21.594Z,17.20
2023-05-20T08:59:48.605Z,17.30
2023-05-20T09:02:15.757Z,17.30
2023-05-20T09:04:43.110Z,17.40
2023-05-20T09:07:10.091Z,17.20
2023-05-20T09:09:36.961Z,17.40
2023-05-20T09:12:04.116Z,17.30
2023-05-20T09:14:31.962Z,17.20
2023-05-20T09:16:59.336Z,17.20
2023-05-20T09:19:26.654Z,17.30
2023-05-20T09:21:55.265Z,17.50
2023-05-20T09:24:26.298Z,17.70
2023-05-20T09:26:53.402Z,17.90
2023-05-20T09:29:22.083Z,18.30
2023-05-20T09:31:50.228Z,18.60
2023-05-20T09:34:18.017Z,18.50
2023-05-20T09:36:45.369Z,18.40
2023-05-20T09:39:17.446Z,18.60
2023-05-20T09:42:01.439Z,18.90
2023-05-20T09:44:33.755Z,18.70
2023-05-20T09:47:01.546Z,18.70
2023-05-20T09:49:29.858Z,18.50
2023-05-20T09:51:58.142Z,18.30
2023-05-20T09:54:26.228Z,18.40
2023-05-20T09:56:54.725Z,18.80
2023-05-20T09:59:22.384Z,18.80
2023-05-20T10:01:49.415Z,18.70
2023-05-20T10:04:18.384Z,18.50
2023-05-20T10:07:00.666Z,18.40
2023-05-20T10:10:22.434Z,18.30
2023-05-20T10:13:07.217Z,18.20
2023-05-20T10:15:54.530Z,18.40
2023-05-20T10:18:33.630Z,18.90
2023-05-20T10:21:02.429Z,19.30
2023-05-20T10:23:30.717Z,19.70
2023-05-20T10:25:58.729Z,20.00
2023-05-20T10:28:30.562Z,19.80
2023-05-20T10:30:58.812Z,20.00
2023-05-20T10:33:28.026Z,20.00
2023-05-20T10:35:59.007Z,20.00
2023-05-20T10:38:26.271Z,19.80
2023-05-20T10:40:57.160Z,19.70
2023-05-20T10:43:28.923Z,19.80
2023-05-20T10:45:57.517Z,20.00
2023-05-20T10:48:30.912Z,20.20
2023-05-20T10:51:00.135Z,20.40
2023-05-20T10:53:38.428Z,20.40
2023-05-20T10:56:06.304Z,20.60
2023-05-20T10:58:41.660Z,20.60
2023-05-20T11:01:10.751Z,20.70
2023-05-20T11:03:40.252Z,20.80
2023-05-20T11:06:18.554Z,20.60
2023-05-20T11:08:46.458Z,20.90
2023-05-20T11:11:14.959Z,21.00
2023-05-20T11:13:42.105Z,20.90
2023-05-20T11:16:14.731Z,21.00
2023-05-20T11:18:41.604Z,20.90
2023-05-20T11:21:09.878Z,20.90
2023-05-20T11:23:39.215Z,20.70
2023-05-20T11:26:07.969Z,20.70
2023-05-20T11:28:36.134Z,20.90
2023-05-20T11:31:03.174Z,20.80
2023-05-20T11:33:30.726Z,21.00
2023-05-20T11:35:58.052Z,21.10
2023-05-20T11:38:25.821Z,21.10
2023-05-20T11:40:54.610Z,21.00
2023-05-20T11:43:23.392Z,21.00
2023-05-20T11:45:59.434Z,20.80
2023-05-20T11:48:27.038Z,20.70
2023-05-20T11:50:55.700Z,20.60
2023-05-20T11:53:24.268Z,20.70
2023-05-20T11:56:04.652Z,20.90
2023-05-20T11:58:32.196Z,21.00
2023-05-20T12:01:13.453Z,21.20
2023-05-20T12:03:55.223Z,21.40
2023-05-20T12:06:22.411Z,21.50
2023-05-20T12:09:08.807Z,21.60
2023-05-20T12:11:41.119Z,21.80
2023-05-20T12:14:08.969Z,21.80
2023-05-20T12:16:39.674Z,21.70
2023-05-20T12:19:09.524Z,21.50
2023-05-20T12:21:36.920Z,21.60
2023-05-20T12:24:12.355Z,21.70
2023-05-20T12:26:41.469Z,22.00
2023-05-20T12:29:11.929Z,22.10
2023-05-20T12:31:41.923Z,22.00
2023-05-20T12:34:11.720Z,22.10
2023-05-20T12:36:41.012Z,22.10
2023-05-20T12:39:11.050Z,22.00
2023-05-20T12:41:42.237Z,21.80
2023-05-20T12:44:09.266Z,21.70
2023-05-20T12:46:37.938Z,21.70
2023-05-20T12:49:06.266Z,21.90
2023-05-20T12:51:33.685Z,22.10
2023-05-20T12:54:03.735Z,22.00
2023-05-20T12:56:31.886Z,22.00
2023-05-20T12:58:58.746Z,22.20
2023-05-20T13:01:26.915Z,22.40
2023-05-20T13:03:56.662Z,22.40
2023-05-20T13:06:23.922Z,22.40
2023-05-20T13:08:50.832Z,22.40
2023-05-20T13:11:17.739Z,22.30
2023-05-20T13:13:44.851Z,22.40
2023-05-20T13:16:11.996Z,22.30
2023-05-20T13:18:38.935Z,22.20
2023-05-20T13:21:05.890Z,22.00
2023-05-20T13:23:32.942Z,21.90
2023-05-20T13:25:59.817Z,21.90
2023-05-20T13:28:26.794Z,21.90
2023-05-20T13:30:54.000Z,22.00
2023-05-20T13:33:24.420Z,22.00
2023-05-20T13:35:51.721Z,22.00
2023-05-20T13:38:20.570Z,21.90
2023-05-20T13:40:47.408Z,21.90
2023-05-20T13:43:14.677Z,21.90
2023-05-20T13:45:42.157Z,22.00
2023-05-20T13:48:09.261Z,22.00
2023-05-20T13:50:36.395Z,22.00
2023-05-20T13:53:03.828Z,22.00
2023-05-20T13:55:31.562Z,22.00
2023-05-20T13:57:59.345Z,22.10
2023-05-20T14:00:26.406Z,22.00
2023-05-20T14:02:55.755Z,22.10
2023-05-20T14:05:23.247Z,22.10
2023-05-20T14:07:50.116Z,22.10
2023-05-20T14:10:17.073Z,22.20
2023-05-20T14:12:47.988Z,22.20
2023-05-20T14:15:15.116Z,22.20
2023-05-20T14:17:42.097Z,22.30
2023-05-20T14:20:09.381Z,22.20
2023-05-20T14:22:36.773Z,22.20
2023-05-20T14:25:04.038Z,22.20
2023-05-20T14:27:31.036Z,22.20
2023-05-20T14:29:58.248Z,22.10
2023-05-20T14:32:25.300Z,22.20
2023-05-20T14:34:53.872Z,22.30
2023-05-20T14:37:20.805Z,22.30
2023-05-20T14:39:50.308Z,22.30
2023-05-20T14:42:19.117Z,22.20
2023-05-20T14:44:49.594Z,22.10
2023-05-20T14:47:19.251Z,22.10
2023-05-20T14:49:50.470Z,22.20
2023-05-20T14:52:18.493Z,22.30
2023-05-20T14:54:45.857Z,22.30
2023-05-20T14:57:13.031Z,22.30
2023-05-20T14:59:39.801Z,22.20
2023-05-20T15:02:09.308Z,22.30
2023-05-20T15:04:38.268Z,22.30
2023-05-20T15:07:10.548Z,22.30
2023-05-20T15:09:38.645Z,22.30
2023-05-20T15:12:14.139Z,22.30
2023-05-20T15:14:42.597Z,22.30
2023-05-20T15:17:10.676Z,22.30
2023-05-20T15:19:41.251Z,22.20
2023-05-20T15:22:08.448Z,22.10
2023-05-20T15:24:35.436Z,22.10
2023-05-20T15:27:03.776Z,22.10
2023-05-20T15:29:30.536Z,22.10
2023-05-20T15:31:57.357Z,22.10
2023-05-20T15:34:24.075Z,22.00
2023-05-20T15:36:50.937Z,22.00
2023-05-20T15:39:17.757Z,21.80
2023-05-20T15:41:47.814Z,21.80
2023-05-20T15:44:14.555Z,21.80
2023-05-20T15:46:41.519Z,21.80
2023-05-20T15:49:08.290Z,21.70
2023-05-20T15:51:35.005Z,21.70
2023-05-20T15:54:01.795Z,21.70
2023-05-20T15:56:29.769Z,21.70
2023-05-20T15:58:56.787Z,21.70
2023-05-20T16:01:23.726Z,21.60
2023-05-20T16:03:50.594Z,21.60
2023-05-20T16:06:17.520Z,21.50
2023-05-20T16:08:44.474Z,21.40
2023-05-20T16:11:11.426Z,21.30
2023-05-20T16:13:38.234Z,21.20
2023-05-20T16:16:05.686Z,21.10
2023-05-20T16:18:32.546Z,21.10
2023-05-20T16:21:00.481Z,21.10
2023-05-20T16:23:27.395Z,21.20
2023-05-20T16:25:54.403Z,21.20
2023-05-20T16:28:21.433Z,21.20
2023-05-20T16:30:48.237Z,21.30
2023-05-20T16:33:15.024Z,21.30
2023-05-20T16:35:41.830Z,21.30
2023-05-20T16:38:09.839Z,21.10
2023-05-20T16:40:36.770Z,21.00
2023-05-20T16:43:03.653Z,20.80
2023-05-20T16:45:30.506Z,20.60
2023-05-20T16:47:57.329Z,20.40
2023-05-20T16:50:24.153Z,20.20
2023-05-20T16:52:54.436Z,20.10
2023-05-20T16:55:21.427Z,20.10
2023-05-20T16:57:51.133Z,20.10
2023-05-20T17:00:18.481Z,20.10
2023-05-20T17:02:46.446Z,20.10
2023-05-20T17:05:16.121Z,20.00
2023-05-20T17:07:45.105Z,20.10
2023-05-20T17:10:53.343Z,20.10
2023-05-20T17:13:25.143Z,20.10
2023-05-20T17:15:52.080Z,20.20
2023-05-20T17:18:34.911Z,20.00
2023-05-20T17:21:01.933Z,20.00
2023-05-20T17:23:28.896Z,19.90
2023-05-20T17:25:55.849Z,19.90
2023-05-20T17:28:22.932Z,19.90
2023-05-20T17:31:01.104Z,19.80
2023-05-20T17:33:27.983Z,19.70
2023-05-20T17:35:54.750Z,19.70
2023-05-20T17:38:22.277Z,19.60
2023-05-20T17:40:49.890Z,19.50
2023-05-20T17:43:16.625Z,19.40
2023-05-20T17:45:43.403Z,19.30
2023-05-20T17:48:11.856Z,19.20
2023-05-20T17:50:38.939Z,19.10
2023-05-20T17:53:06.137Z,18.90
2023-05-20T17:55:36.171Z,18.80
2023-05-20T17:58:03.361Z,18.70
2023-05-20T18:00:30.489Z,18.60
2023-05-20T18:03:00.273Z,18.50
2023-05-20T18:05:27.841Z,18.40
2023-05-20T18:07:54.879Z,18.30
2023-05-20T18:10:21.804Z,18.20
2023-05-20T18:12:50.801Z,18.10
2023-05-20T18:15:18.746Z,18.00
2023-05-20T18:17:46.082Z,17.90
2023-05-20T18:20:13.863Z,17.90
2023-05-20T18:22:45.385Z,17.80
2023-05-20T18:25:15.753Z,17.70
2023-05-20T18:27:42.863Z,17.60
2023-05-20T18:30:10.400Z,17.60
2023-05-20T18:32:38.466Z,17.50
2023-05-20T18:35:05.690Z,17.50
2023-05-20T18:37:33.483Z,17.40
2023-05-20T18:40:00.450Z,17.40
2023-05-20T18:42:27.229Z,17.30
2023-05-20T18:44:54.507Z,17.20
2023-05-20T18:47:21.434Z,17.00
2023-05-20T18:49:48.313Z,16.90
2023-05-20T18:52:15.157Z,16.80
2023-05-20T18:54:42.505Z,16.60
2023-05-20T18:57:09.504Z,16.60
2023-05-20T18:59:37.018Z,16.50
2023-05-20T19:02:04.027Z,16.40
2023-05-20T19:04:31.035Z,16.30
2023-05-20T19:06:59.169Z,16.10
2023-05-20T19:09:25.974Z,16.10
2023-05-20T19:11:56.939Z,16.00
2023-05-20T19:14:23.856Z,15.80
2023-05-20T19:16:50.724Z,15.70
2023-05-20T19:19:17.631Z,15.60
2023-05-20T19:21:44.529Z,15.60
2023-05-20T19:24:11.468Z,15.50
2023-05-20T19:26:38.243Z,15.40
2023-05-20T19:29:06.912Z,15.40
2023-05-20T19:31:33.762Z,15.30
2023-05-20T19:34:00.538Z,15.20
2023-05-20T19:36:30.969Z,15.20
2023-05-20T19:38:58.337Z,15.10
2023-05-20T19:41:25.523Z,15.10
2023-05-20T19:43:52.209Z,15.00
2023-05-20T19:46:19.068Z,15.00
2023-05-20T19:48:45.954Z,14.90
2023-05-20T19:51:12.791Z,14.90
2023-05-20T19:53:39.520Z,14.90
2023-05-20T19:56:07.868Z,14.90
2023-05-20T19:58:34.812Z,14.80
2023-05-20T20:01:02.117Z,14.80
2023-05-20T20:03:28.944Z,14.70
2023-05-20T20:05:57.004Z,14.70
2023-05-20T20:08:23.976Z,14.70
2023-05-20T20:10:50.728Z,14.70
2023-05-20T20:13:17.413Z,14.60
2023-05-20T20:15:44.225Z,14.60
2023-05-20T20:18:11.145Z,14.60
2023-05-20T20:20:40.638Z,14.60
2023-05-20T20:23:08.065Z,14.50
2023-05-20T20:25:39.912Z,14.50
2023-05-20T20:28:07.735Z,14.50
2023-05-20T20:30:35.233Z,14.40
2023-05-20T20:33:06.133Z,14.40
2023-05-20T20:35:34.196Z,14.40
2023-05-20T20:38:01.445Z,14.40
2023-05-20T20:40:28.380Z,14.30
2023-05-20T20:42:58.285Z,14.30
2023-05-20T20:45:24.983Z,14.30
2023-05-20T20:47:54.750Z,14.30
2023-05-20T20:50:21.639Z,14.30
2023-05-20T20:52:48.649Z,14.30
2023-05-20T20:55:15.704Z,14.30
2023-05-20T20:57:42.414Z,14.30
2023-05-20T21:00:23.453Z,14.30
2023-05-20T21:02:50.470Z,14.30
2023-05-20T21:05:17.479Z,14.40
2023-05-20T21:07:46.962Z,14.40
2023-05-20T21:10:14.002Z,14.40
2023-05-20T21:12:40.705Z,14.40
2023-05-20T21:15:08.051Z,14.40
2023-05-20T21:17:34.971Z,14.40
2023-05-20T21:20:01.672Z,14.50
2023-05-20T21:22:28.449Z,14.50
2023-05-20T21:24:55.162Z,14.50
2023-05-20T21:27:21.874Z,14.50
2023-05-20T21:29:50.754Z,14.60
2023-05-20T21:32:17.576Z,14.50
2023-05-20T21:34:44.260Z,14.60
2023-05-20T21:37:11.033Z,14.60
2023-05-20T21:39:38.831Z,14.60
2023-05-20T21:42:06.766Z,14.60
2023-05-20T21:44:33.715Z,14.60
2023-05-20T21:47:00.454Z,14.60
2023-05-20T21:49:27.184Z,14.60
2023-05-20T21:51:53.917Z,14.50
2023-05-20T21:54:20.761Z,14.50
2023-05-20T21:56:47.504Z,14.40
2023-05-20T21:59:14.693Z,14.30
2023-05-20T22:01:41.633Z,14.20
2023-05-20T22:04:09.325Z,14.20
2023-05-20T22:06:36.226Z,14.10
2023-05-20T22:09:04.328Z,14.00
2023-05-20T22:11:31.250Z,13.90
2023-05-20T22:13:59.696Z,13.90
2023-05-20T22:16:26.540Z,13.80
2023-05-20T22:18:53.809Z,13.80
2023-05-20T22:21:21.507Z,13.80
2023-05-20T22:23:48.359Z,13.80
2023-05-20T22:26:15.162Z,13.60
2023-05-20T22:28:42.254Z,13.60
2023-05-20T22:31:09.192Z,13.60
2023-05-20T22:33:36.968Z,13.60
2023-05-20T22:36:04.155Z,13.50
2023-05-20T22:38:30.919Z,13.50
2023-05-20T22:40:57.653Z,13.40
2023-05-20T22:43:24.698Z,13.40
2023-05-20T22:46:00.375Z,13.30
2023-05-20T22:48:28.691Z,13.30
2023-05-20T22:51:03.950Z,13.30
2023-05-20T22:53:31.390Z,13.30
2023-05-20T22:55:59.998Z,13.30
2023-05-20T22:58:34.852Z,13.30
2023-05-20T23:01:02.049Z,13.20
2023-05-20T23:03:36.536Z,13.20
2023-05-20T23:06:04.441Z,13.20
2023-05-20T23:08:33.772Z,13.20
2023-05-20T23:11:05.947Z,13.10
2023-05-20T23:13:35.652Z,13.10
2023-05-20T23:16:10.333Z,13.10
2023-05-20T23:18:39.472Z,13.10
2023-05-20T23:21:06.533Z,13.00
2023-05-20T23:23:38.868Z,13.00
2023-05-20T23:26:05.821Z,13.00
2023-05-20T23:28:32.795Z,13.00
2023-05-20T23:30:59.716Z,13.00
2023-05-20T23:33:26.605Z,12.90
2023-05-20T23:35:56.277Z,12.90
2023-05-20T23:38:23.415Z,12.90
2023-05-20T23:40:53.525Z,12.90
2023-05-20T23:43:20.338Z,12.90
2023-05-20T23:45:47.283Z,12.90
2023-05-20T23:48:14.576Z,12.90
2023-05-20T23:50:41.583Z,12.90
2023-05-20T23:53:08.460Z,12.90
2023-05-20T23:55:35.596Z,12.90
2023-05-20T23:58:02.675Z,12.90
